createdAt,value
2023-03-29T04:04:10.903Z,1.27
2023-03-29T04:08:23.446Z,1.40
2023-03-29T04:12:54.594Z,1.17
2023-03-29T04:17:06.506Z,1.50
2023-03-29T04:21:33.850Z,1.73
2023-03-29T04:25:45.745Z,2.07
2023-03-29T04:30:19.496Z,1.57
2023-03-29T04:34:56.395Z,1.53
2023-03-29T04:39:07.987Z,1.30
2023-03-29T04:43:20.323Z,1.50
2023-03-29T04:47:41.970Z,1.83
2023-03-29T04:52:00.803Z,1.60
2023-03-29T04:56:16.691Z,1.47
2023-03-29T05:01:03.879Z,1.67
2023-03-29T05:05:22.977Z,2.00
2023-03-29T05:09:35.635Z,2.10
2023-03-29T05:13:48.687Z,1.97
2023-03-29T05:18:00.862Z,2.43
2023-03-29T05:22:12.726Z,2.43
2023-03-29T05:26:25.513Z,2.17
2023-03-29T05:30:41.043Z,2.03
2023-03-29T05:34:59.945Z,2.00
2023-03-29T05:39:11.782Z,2.07
2023-03-29T05:43:26.580Z,2.60
2023-03-29T05:47:38.613Z,3.07
2023-03-29T05:51:51.997Z,3.90
2023-03-29T05:56:04.175Z,4.60
2023-03-29T06:00:21.848Z,5.13
2023-03-29T06:04:33.935Z,3.97
2023-03-29T06:09:04.058Z,3.33
2023-03-29T06:13:19.597Z,3.13
2023-03-29T06:17:33.640Z,3.00
2023-03-29T06:21:45.359Z,3.63
2023-03-29T06:26:01.355Z,3.20
2023-03-29T06:30:15.604Z,3.17
2023-03-29T06:34:31.432Z,4.53
2023-03-29T06:39:03.945Z,4.23
2023-03-29T06:43:35.110Z,4.67
2023-03-29T06:47:51.870Z,5.40
2023-03-29T06:52:03.547Z,6.73
2023-03-29T06:56:16.024Z,7.00
2023-03-29T07:00:30.672Z,7.27
2023-03-29T07:04:58.371Z,7.07
2023-03-29T07:09:14.318Z,5.97
2023-03-29T07:13:51.571Z,7.20
2023-03-29T07:18:05.398Z,10.37
2023-03-29T07:22:17.668Z,9.43
2023-03-29T07:26:34.593Z,7.80
2023-03-29T07:30:46.901Z,5.93
2023-03-29T07:35:04.533Z,6.18
2023-03-29T07:39:19.197Z,6.80
2023-03-29T07:43:47.772Z,6.10
2023-03-29T07:48:03.065Z,4.65
2023-03-29T07:52:33.161Z,4.63
2023-03-29T07:56:45.334Z,4.75
2023-03-29T08:01:04.151Z,5.25
2023-03-29T08:05:41.192Z,4.00
2023-03-29T08:09:59.162Z,3.97
2023-03-29T08:14:36.634Z,3.10
2023-03-29T08:18:54.837Z,3.47
2023-03-29T08:23:10.744Z,3.10
2023-03-29T08:27:48.571Z,3.53
2023-03-29T08:32:08.310Z,3.42
2023-03-29T08:36:20.067Z,3.10
2023-03-29T08:40:33.544Z,3.25
2023-03-29T08:45:19.614Z,3.30
2023-03-29T08:49:36.983Z,3.03
2023-03-29T08:54:02.149Z,3.05
2023-03-29T08:58:32.604Z,3.00
2023-03-29T09:02:45.810Z,3.20
2023-03-29T09:06:58.212Z,3.08
2023-03-29T09:11:41.440Z,2.95
2023-03-29T09:16:25.570Z,2.92
2023-03-29T09:20:42.206Z,3.10
2023-03-29T09:25:13.929Z,3.15
2023-03-29T09:29:58.310Z,3.25
2023-03-29T09:34:51.488Z,3.42
2023-03-29T09:39:05.655Z,2.65
2023-03-29T09:43:37.800Z,3.15
2023-03-29T09:48:03.488Z,3.30
2023-03-29T09:52:18.163Z,3.17
2023-03-29T09:56:39.798Z,2.75
2023-03-29T10:01:00.366Z,2.67
2023-03-29T10:05:16.426Z,2.67
2023-03-29T10:09:30.228Z,2.70
2023-03-29T10:13:59.311Z,3.15
2023-03-29T10:18:13.474Z,2.78
2023-03-29T10:22:31.841Z,2.92
2023-03-29T10:26:43.541Z,2.70
2023-03-29T10:30:57.669Z,2.80
2023-03-29T10:35:22.174Z,3.00
2023-03-29T10:44:34.536Z,3.00
2023-03-29T10:48:51.749Z,3.47
2023-03-29T10:53:09.541Z,3.20
2023-03-29T10:57:40.767Z,3.38
2023-03-29T11:02:14.194Z,2.90
2023-03-29T11:06:40.983Z,3.55
2023-03-29T11:11:27.461Z,3.28
2023-03-29T11:15:45.159Z,3.10
2023-03-29T11:20:31.100Z,2.78
2023-03-29T11:25:06.713Z,3.35
2023-03-29T11:29:27.045Z,2.47
2023-03-29T11:33:56.524Z,2.53
2023-03-29T11:38:20.012Z,2.40
2023-03-29T11:42:35.930Z,2.60
2023-03-29T11:47:00.185Z,2.70
2023-03-29T11:51:26.182Z,2.50
2023-03-29T11:55:39.597Z,2.33
2023-03-29T12:00:01.287Z,2.20
2023-03-29T12:04:22.852Z,1.77
2023-03-29T12:09:03.899Z,1.80
2023-03-29T12:13:24.367Z,1.67
2023-03-29T12:17:58.902Z,1.90
2023-03-29T12:22:11.044Z,2.22
2023-03-29T12:26:34.909Z,1.60
2023-03-29T12:31:03.341Z,1.80
2023-03-29T12:35:45.839Z,2.00
2023-03-29T12:40:27.474Z,2.33
2023-03-29T12:45:19.965Z,2.10
2023-03-29T12:49:38.119Z,2.13
2023-03-29T12:53:52.487Z,2.10
2023-03-29T12:58:06.910Z,1.80
2023-03-29T13:02:18.391Z,2.03
2023-03-29T13:06:48.284Z,2.33
2023-03-29T13:10:59.969Z,2.10
2023-03-29T13:15:14.372Z,6.07
2023-03-29T13:20:09.237Z,4.88
2023-03-29T13:24:38.509Z,2.30
2023-03-29T13:28:50.206Z,2.10
2023-03-29T13:33:20.896Z,2.25
2023-03-29T13:37:48.693Z,2.45
2023-03-29T13:42:21.537Z,2.13
2023-03-29T13:46:41.872Z,1.90
2023-03-29T13:51:08.148Z,2.50
2023-03-29T13:55:25.817Z,4.03
2023-03-29T14:00:12.750Z,4.03
2023-03-29T14:04:27.896Z,2.70
2023-03-29T14:08:41.514Z,13.13
2023-03-29T14:12:54.942Z,7.65
2023-03-29T14:17:07.523Z,4.10
2023-03-29T14:21:20.941Z,2.42
2023-03-29T14:25:32.429Z,2.80
2023-03-29T14:29:49.189Z,3.10
2023-03-29T14:34:02.609Z,2.47
2023-03-29T14:38:14.787Z,2.40
2023-03-29T14:42:28.968Z,2.55
2023-03-29T14:46:43.298Z,2.80
2023-03-29T14:50:55.000Z,3.03
2023-03-29T14:55:07.252Z,2.70
2023-03-29T14:59:29.542Z,2.60
2023-03-29T15:03:54.567Z,2.30
2023-03-29T15:08:10.298Z,2.75
2023-03-29T15:12:22.123Z,2.72
2023-03-29T15:16:36.970Z,2.60
2023-03-29T15:20:48.569Z,2.45
2023-03-29T15:25:00.838Z,2.00
2023-03-29T15:29:17.446Z,2.30
2023-03-29T15:33:34.441Z,2.10
2023-03-29T15:37:46.112Z,2.00
2023-03-29T15:41:58.270Z,1.80
2023-03-29T15:46:16.577Z,1.38
2023-03-29T15:50:28.656Z,1.67
2023-03-29T15:54:40.164Z,1.80
2023-03-29T15:58:52.066Z,1.60
2023-03-29T16:03:03.867Z,1.50
2023-03-29T16:07:17.659Z,1.20
2023-03-29T16:11:29.318Z,1.95
2023-03-29T16:20:14.820Z,1.42
2023-03-29T16:24:29.086Z,1.75
2023-03-29T16:28:41.048Z,1.92
2023-03-29T16:32:52.631Z,2.15
2023-03-29T16:37:04.342Z,1.90
2023-03-29T16:41:16.945Z,1.60
2023-03-29T16:45:28.635Z,1.98
2023-03-29T16:49:41.116Z,1.98
2023-03-29T16:53:54.048Z,2.08
2023-03-29T16:58:06.076Z,2.13
2023-03-29T17:02:17.674Z,1.90
2023-03-29T17:06:29.786Z,2.92
2023-03-29T17:10:41.775Z,2.90
2023-03-29T17:14:53.277Z,1.95
2023-03-29T17:19:04.781Z,2.42
2023-03-29T17:23:16.347Z,2.13
2023-03-29T17:27:27.873Z,2.47
2023-03-29T17:31:46.745Z,1.98
2023-03-29T17:35:58.387Z,2.55
2023-03-29T17:40:11.368Z,3.30
2023-03-29T17:44:22.946Z,2.80
2023-03-29T17:48:34.478Z,2.20
2023-03-29T17:52:45.997Z,2.50
2023-03-29T17:56:57.698Z,2.30
2023-03-29T18:01:10.968Z,3.80
2023-03-29T18:05:22.568Z,4.80
2023-03-29T18:09:34.369Z,2.50
2023-03-29T18:13:45.923Z,2.28
2023-03-29T18:17:58.061Z,2.45
2023-03-29T18:22:09.875Z,1.95
2023-03-29T18:26:22.859Z,1.80
2023-03-29T18:30:35.455Z,2.22
2023-03-29T18:34:47.054Z,1.95
2023-03-29T18:39:05.377Z,2.55
2023-03-29T18:43:16.943Z,2.67
2023-03-29T18:47:29.019Z,3.03
2023-03-29T18:51:42.064Z,1.77
2023-03-29T18:55:55.342Z,2.10
2023-03-29T19:00:11.847Z,1.73
2023-03-29T19:04:25.686Z,2.55
2023-03-29T19:08:41.063Z,2.10
2023-03-29T19:12:52.698Z,1.98
2023-03-29T19:17:04.180Z,2.20
2023-03-29T19:21:15.709Z,2.20
2023-03-29T19:25:27.742Z,1.85
2023-03-29T19:29:39.334Z,2.03
2023-03-29T19:33:50.895Z,1.90
2023-03-29T19:38:02.479Z,1.77
2023-03-29T19:42:14.030Z,2.00
2023-03-29T19:46:27.613Z,2.10
2023-03-29T19:50:40.956Z,2.55
2023-03-29T19:54:52.548Z,2.05
2023-03-29T19:59:04.124Z,1.98
2023-03-29T20:03:15.731Z,1.88
2023-03-29T20:07:27.857Z,2.03
2023-03-29T20:11:39.606Z,1.90
2023-03-29T20:15:51.397Z,1.50
2023-03-29T20:20:08.170Z,2.13
2023-03-29T20:24:19.706Z,1.90
2023-03-29T20:28:31.503Z,1.48
2023-03-29T20:32:43.298Z,1.65
2023-03-29T20:36:55.381Z,1.40
2023-03-29T20:41:09.277Z,1.52
2023-03-29T20:45:20.963Z,1.90
2023-03-29T20:49:37.900Z,1.58
2023-03-29T20:53:50.645Z,1.80
2023-03-29T20:58:02.373Z,1.77
2023-03-29T21:02:17.333Z,2.00
2023-03-29T21:06:28.906Z,1.60
2023-03-29T21:10:42.389Z,1.70
2023-03-29T21:14:54.035Z,1.83
2023-03-29T21:19:05.557Z,2.03
2023-03-29T21:23:17.154Z,1.98
2023-03-29T21:27:28.653Z,1.60
